createdAt,value
2022-10-18T00:01:48.861Z,5.63
2022-10-18T00:04:18.281Z,5.73
2022-10-18T00:06:49.114Z,5.72
2022-10-18T00:09:18.714Z,5.67
2022-10-18T00:11:47.851Z,5.67
2022-10-18T00:14:17.873Z,5.69
2022-10-18T00:16:48.076Z,5.73
2022-10-18T00:19:20.446Z,5.73
2022-10-18T00:21:52.884Z,5.79
2022-10-18T00:24:21.925Z,5.71
2022-10-18T00:26:51.167Z,5.73
2022-10-18T00:29:20.381Z,5.82
2022-10-18T00:31:49.597Z,5.86
2022-10-18T00:34:18.847Z,6.03
2022-10-18T00:36:47.919Z,6.10
2022-10-18T00:39:20.524Z,6.13
2022-10-18T00:41:50.651Z,6.17
2022-10-18T00:44:57.023Z,6.22
2022-10-18T00:47:26.412Z,6.35
2022-10-18T00:49:58.710Z,6.34
2022-10-18T00:52:30.936Z,6.32
2022-10-18T00:55:02.743Z,6.41
2022-10-18T00:57:33.792Z,6.38
2022-10-18T01:00:07.677Z,6.18
2022-10-18T01:02:38.303Z,6.11
2022-10-18T01:05:08.905Z,5.97
2022-10-18T01:08:08.463Z,6.02
2022-10-18T01:10:47.608Z,5.99
2022-10-18T01:13:30.781Z,6.04
2022-10-18T01:16:03.850Z,6.03
2022-10-18T01:18:39.336Z,6.01
2022-10-18T01:21:26.802Z,5.95
2022-10-18T01:24:19.003Z,6.04
2022-10-18T01:27:07.098Z,5.90
2022-10-18T01:29:50.485Z,5.79
2022-10-18T01:32:25.478Z,5.86
2022-10-18T01:34:58.507Z,5.84
2022-10-18T01:37:29.762Z,5.75
2022-10-18T01:40:03.876Z,5.70
2022-10-18T01:42:33.769Z,5.68
2022-10-18T01:45:05.641Z,5.75
2022-10-18T01:47:40.561Z,5.81
2022-10-18T01:50:10.497Z,5.91
2022-10-18T01:52:49.544Z,5.93
2022-10-18T01:55:20.526Z,5.97
2022-10-18T01:58:00.701Z,6.09
2022-10-18T02:00:38.505Z,6.14
2022-10-18T02:03:17.702Z,6.17
2022-10-18T02:05:53.769Z,6.15
2022-10-18T02:08:30.063Z,5.97
2022-10-18T02:11:06.778Z,5.97
2022-10-18T02:13:55.795Z,5.95
2022-10-18T02:16:29.945Z,6.00
2022-10-18T02:19:06.034Z,6.06
2022-10-18T02:21:36.154Z,6.11
2022-10-18T02:24:08.410Z,6.20
2022-10-18T02:26:37.785Z,6.24
2022-10-18T02:29:07.343Z,6.31
2022-10-18T02:31:41.490Z,6.34
2022-10-18T02:34:21.234Z,6.40
2022-10-18T02:36:54.145Z,6.46
2022-10-18T02:39:26.847Z,6.51
2022-10-18T02:41:56.308Z,6.52
2022-10-18T02:44:26.379Z,6.55
2022-10-18T02:46:55.823Z,6.59
2022-10-18T02:49:26.458Z,6.55
2022-10-18T02:51:57.814Z,6.50
2022-10-18T02:54:27.368Z,6.47
2022-10-18T02:56:56.576Z,6.45
2022-10-18T02:59:25.843Z,6.41
2022-10-18T03:01:54.943Z,6.40
2022-10-18T03:04:25.718Z,6.35
2022-10-18T03:06:55.152Z,6.40
2022-10-18T03:09:24.503Z,6.41
2022-10-18T03:11:53.630Z,6.49
2022-10-18T03:14:23.175Z,6.44
2022-10-18T03:16:52.512Z,6.40
2022-10-18T03:19:28.256Z,6.41
2022-10-18T03:21:57.608Z,6.36
2022-10-18T03:24:26.985Z,6.21
2022-10-18T03:26:56.585Z,6.06
2022-10-18T03:29:27.298Z,5.97
2022-10-18T03:31:56.426Z,6.00
2022-10-18T03:34:25.521Z,5.99
2022-10-18T03:37:00.945Z,5.92
2022-10-18T03:39:32.746Z,5.92
2022-10-18T03:42:02.304Z,5.86
2022-10-18T03:44:31.846Z,5.85
2022-10-18T03:47:01.497Z,5.94
2022-10-18T03:49:30.638Z,5.86
2022-10-18T03:52:01.766Z,5.83
2022-10-18T03:54:31.254Z,5.79
2022-10-18T03:57:00.775Z,5.82
2022-10-18T03:59:33.930Z,5.87
2022-10-18T04:02:04.017Z,5.99
2022-10-18T04:04:33.672Z,6.04
2022-10-18T04:07:04.958Z,6.15
2022-10-18T04:09:34.987Z,6.29
2022-10-18T04:12:05.164Z,6.46
2022-10-18T04:14:34.988Z,6.28
2022-10-18T04:17:07.672Z,6.14
2022-10-18T04:19:41.668Z,6.17
2022-10-18T04:22:14.607Z,6.22
2022-10-18T04:24:45.198Z,6.24
2022-10-18T04:27:15.745Z,6.15
2022-10-18T04:29:48.617Z,6.15
2022-10-18T04:32:19.393Z,6.13
2022-10-18T04:34:49.721Z,6.20
2022-10-18T04:37:21.338Z,6.22
2022-10-18T04:39:53.701Z,6.27
2022-10-18T04:42:25.162Z,6.23
2022-10-18T04:44:55.162Z,6.32
2022-10-18T04:47:25.444Z,6.49
2022-10-18T04:49:59.850Z,6.56
2022-10-18T04:52:31.502Z,6.57
2022-10-18T04:55:01.089Z,6.58
2022-10-18T04:57:56.154Z,6.63
2022-10-18T05:00:25.890Z,6.59
2022-10-18T05:02:59.114Z,7.18
2022-10-18T05:05:49.594Z,7.37
2022-10-18T05:08:19.889Z,7.39
2022-10-18T05:10:50.116Z,7.69
2022-10-18T05:13:19.690Z,7.52
2022-10-18T05:16:04.219Z,7.70
2022-10-18T05:18:33.869Z,7.62
2022-10-18T05:21:03.295Z,7.64
2022-10-18T05:23:35.681Z,7.50
2022-10-18T05:26:06.496Z,7.74
2022-10-18T05:28:40.524Z,7.86
2022-10-18T05:31:15.764Z,7.99
2022-10-18T05:33:46.608Z,8.03
2022-10-18T05:36:42.009Z,7.98
2022-10-18T05:42:13.538Z,8.09
2022-10-18T05:44:43.285Z,8.04
2022-10-18T05:47:16.504Z,7.70
2022-10-18T05:49:49.645Z,7.52
2022-10-18T05:52:19.874Z,7.31
2022-10-18T05:54:57.216Z,7.35
2022-10-18T05:57:29.618Z,7.41
2022-10-18T05:59:59.190Z,7.46
2022-10-18T06:02:30.444Z,7.37
2022-10-18T06:05:00.530Z,7.32
2022-10-18T06:07:35.115Z,7.34
2022-10-18T06:10:10.345Z,7.45
2022-10-18T06:12:47.744Z,7.48
2022-10-18T06:15:19.196Z,7.51
2022-10-18T06:17:49.636Z,7.57
2022-10-18T06:20:22.705Z,7.70
2022-10-18T06:22:54.416Z,7.61
2022-10-18T06:25:25.186Z,7.63
2022-10-18T06:27:54.493Z,7.54
2022-10-18T06:30:24.104Z,7.40
2022-10-18T06:32:54.527Z,7.32
2022-10-18T06:35:24.020Z,7.28
2022-10-18T06:38:05.011Z,7.72
2022-10-18T06:40:40.068Z,7.77
2022-10-18T06:43:20.675Z,8.11
2022-10-18T06:45:56.118Z,8.04
2022-10-18T06:48:33.839Z,7.91
2022-10-18T06:51:05.739Z,7.95
2022-10-18T06:53:44.192Z,7.92
2022-10-18T06:56:19.495Z,8.01
2022-10-18T06:58:49.709Z,8.01
2022-10-18T07:01:21.028Z,7.84
2022-10-18T07:03:54.807Z,7.78
2022-10-18T07:06:25.405Z,7.90
2022-10-18T07:08:57.271Z,7.71
2022-10-18T07:11:29.547Z,7.71
2022-10-18T07:14:03.444Z,7.49
2022-10-18T07:16:33.980Z,7.32
2022-10-18T07:19:04.408Z,7.28
2022-10-18T07:21:38.800Z,7.62
2022-10-18T07:24:12.415Z,7.60
2022-10-18T07:27:30.692Z,7.46
2022-10-18T07:30:02.393Z,7.21
2022-10-18T07:32:37.302Z,7.39
2022-10-18T07:37:39.607Z,7.37
2022-10-18T07:40:12.642Z,7.29
2022-10-18T07:42:47.017Z,7.22
2022-10-18T07:45:17.722Z,7.07
2022-10-18T07:47:48.057Z,7.60
2022-10-18T07:50:17.772Z,7.70
2022-10-18T07:52:47.272Z,7.35
2022-10-18T07:55:23.268Z,7.22
2022-10-18T07:57:54.072Z,7.26
2022-10-18T08:00:23.861Z,7.31
2022-10-18T08:02:57.793Z,7.32
2022-10-18T08:05:28.617Z,7.33
2022-10-18T08:08:01.080Z,7.41
2022-10-18T08:11:05.078Z,7.47
2022-10-18T08:13:36.328Z,7.56
2022-10-18T08:16:08.749Z,7.54
2022-10-18T08:18:39.174Z,7.56
2022-10-18T08:21:11.252Z,7.60
2022-10-18T08:23:41.818Z,7.44
2022-10-18T08:26:17.353Z,7.46
2022-10-18T08:28:54.255Z,7.31
2022-10-18T08:31:35.267Z,7.36
2022-10-18T08:34:05.916Z,7.36
2022-10-18T08:36:43.291Z,7.24
2022-10-18T08:39:24.351Z,7.08
2022-10-18T08:42:22.801Z,6.94
2022-10-18T08:44:58.191Z,6.86
2022-10-18T08:47:36.990Z,6.88
2022-10-18T08:50:22.168Z,6.88
2022-10-18T08:53:03.378Z,6.76
2022-10-18T08:55:40.531Z,6.86
2022-10-18T08:58:25.449Z,6.93
2022-10-18T09:01:24.159Z,6.89
2022-10-18T09:04:26.627Z,6.95
2022-10-18T09:07:19.526Z,6.91
2022-10-18T09:10:08.497Z,6.71
2022-10-18T09:13:06.591Z,6.77
2022-10-18T09:15:45.095Z,6.85
2022-10-18T09:18:41.941Z,6.77
2022-10-18T09:21:20.633Z,6.88
2022-10-18T09:24:00.398Z,6.94
2022-10-18T09:26:40.794Z,6.89
2022-10-18T09:29:36.369Z,7.02
2022-10-18T09:32:46.626Z,7.09
2022-10-18T09:35:24.184Z,7.02
2022-10-18T09:38:03.795Z,7.07
2022-10-18T09:40:39.929Z,7.09
2022-10-18T09:43:17.858Z,7.07
2022-10-18T09:45:50.469Z,7.01
2022-10-18T09:48:25.467Z,7.15
2022-10-18T09:51:00.376Z,7.33
2022-10-18T09:53:38.850Z,7.45
2022-10-18T09:56:13.645Z,7.39
2022-10-18T09:58:47.898Z,7.51
2022-10-18T10:01:29.960Z,7.48
2022-10-18T10:04:13.796Z,7.33
2022-10-18T10:07:50.654Z,7.56
2022-10-18T10:10:30.210Z,7.39
2022-10-18T10:13:28.744Z,7.48
2022-10-18T10:16:08.212Z,7.41
2022-10-18T10:18:41.889Z,7.54
2022-10-18T10:21:42.175Z,7.65
2022-10-18T10:24:37.665Z,7.64
2022-10-18T10:27:47.541Z,7.64
2022-10-18T10:30:29.915Z,7.90
2022-10-18T10:33:01.889Z,7.98
2022-10-18T10:35:52.499Z,7.98
2022-10-18T10:38:43.926Z,8.02
2022-10-18T10:41:28.385Z,8.09
2022-10-18T10:43:59.559Z,8.02
2022-10-18T10:46:38.773Z,8.04
2022-10-18T10:52:29.042Z,8.18
2022-10-18T10:55:23.320Z,8.22
2022-10-18T10:57:59.841Z,8.54
2022-10-18T11:00:49.686Z,8.57
2022-10-18T11:03:30.119Z,8.58
2022-10-18T11:06:02.660Z,8.49
2022-10-18T11:08:43.508Z,8.66
2022-10-18T11:11:36.770Z,8.53
2022-10-18T11:14:26.679Z,8.46
2022-10-18T11:17:49.886Z,8.39
2022-10-18T11:20:37.865Z,8.43
2022-10-18T11:23:13.872Z,8.46
2022-10-18T11:26:04.243Z,8.43
2022-10-18T11:28:55.338Z,8.44
2022-10-18T11:31:35.969Z,8.38
2022-10-18T11:34:34.940Z,8.25
2022-10-18T11:37:54.925Z,8.27
2022-10-18T11:40:37.158Z,8.19
2022-10-18T11:43:20.526Z,8.11
2022-10-18T11:46:07.480Z,8.13
2022-10-18T11:49:03.636Z,8.25
2022-10-18T11:52:07.284Z,8.44
2022-10-18T11:55:07.487Z,8.38
2022-10-18T11:57:54.398Z,8.58
2022-10-18T12:00:40.206Z,8.75
2022-10-18T12:03:39.042Z,8.76
2022-10-18T12:06:28.885Z,8.88
2022-10-18T12:09:14.019Z,8.90
2022-10-18T12:11:55.753Z,8.94
2022-10-18T12:14:45.535Z,9.05
2022-10-18T12:17:49.796Z,9.26
2022-10-18T12:20:37.868Z,9.46
2022-10-18T12:23:16.714Z,9.50
2022-10-18T12:25:57.306Z,9.58
2022-10-18T12:28:43.750Z,9.66
2022-10-18T12:31:26.387Z,9.75
2022-10-18T12:34:21.706Z,9.86
2022-10-18T12:37:28.082Z,9.91
2022-10-18T12:40:23.426Z,10.08
2022-10-18T12:42:55.327Z,10.14
2022-10-18T12:45:42.928Z,10.23
2022-10-18T12:48:34.124Z,10.29
2022-10-18T12:51:21.000Z,10.44
2022-10-18T12:54:10.240Z,10.58
2022-10-18T12:56:51.344Z,10.69
2022-10-18T12:59:45.049Z,10.75
2022-10-18T13:02:33.516Z,10.80
2022-10-18T13:05:52.909Z,10.82
2022-10-18T13:08:43.405Z,10.86
2022-10-18T13:12:03.481Z,10.92
2022-10-18T13:15:24.848Z,10.98
2022-10-18T13:21:47.211Z,11.08
2022-10-18T13:32:37.375Z,11.13
2022-10-18T13:36:00.932Z,11.15
2022-10-18T13:38:50.510Z,11.20
2022-10-18T13:42:12.740Z,11.15
2022-10-18T13:44:46.765Z,11.12
2022-10-18T13:47:40.253Z,11.22
2022-10-18T13:50:36.039Z,11.17
2022-10-18T13:54:10.110Z,11.30
2022-10-18T14:29:14.807Z,11.15
2022-10-18T15:04:33.294Z,11.34
2022-10-18T16:31:08.755Z,10.08
2022-10-18T16:34:18.230Z,10.05
2022-10-18T16:37:25.008Z,9.95
2022-10-18T16:40:06.403Z,9.78
2022-10-18T16:42:54.118Z,9.84
2022-10-18T16:46:12.127Z,9.82
2022-10-18T16:49:00.196Z,9.72
2022-10-18T16:51:34.528Z,9.63
2022-10-18T16:54:05.852Z,9.44
2022-10-18T16:56:37.830Z,9.33
2022-10-18T16:59:10.574Z,9.15
2022-10-18T17:01:45.793Z,9.20
2022-10-18T17:07:55.514Z,8.95
2022-10-18T17:10:35.148Z,8.75
2022-10-18T17:13:31.899Z,8.65
2022-10-18T17:16:53.801Z,8.74
2022-10-18T17:22:30.921Z,8.52
2022-10-18T17:25:03.329Z,8.49
2022-10-18T17:27:37.653Z,8.55
2022-10-18T17:30:24.268Z,8.50
2022-10-18T17:32:55.468Z,8.42
2022-10-18T17:35:26.822Z,8.50
2022-10-18T17:38:05.472Z,8.47
2022-10-18T17:40:43.238Z,8.40
2022-10-18T17:43:15.207Z,8.40
2022-10-18T17:46:18.344Z,8.35
2022-10-18T17:49:05.426Z,8.38
2022-10-18T17:51:38.732Z,8.27
2022-10-18T17:54:29.245Z,8.19
2022-10-18T17:57:11.843Z,8.10
2022-10-18T17:59:44.411Z,7.99
2022-10-18T18:02:21.172Z,7.99
2022-10-18T18:04:52.231Z,7.91
2022-10-18T18:07:32.918Z,7.91
2022-10-18T18:10:04.468Z,7.89
2022-10-18T18:12:42.241Z,7.74
2022-10-18T18:15:17.393Z,7.66
2022-10-18T18:17:58.503Z,7.75
2022-10-18T18:20:34.812Z,7.79
2022-10-18T18:26:33.855Z,7.61
2022-10-18T18:29:31.727Z,7.38
2022-10-18T18:32:14.546Z,7.27
2022-10-18T18:34:49.403Z,7.18
2022-10-18T18:37:21.420Z,7.09
2022-10-18T18:40:14.155Z,7.06
2022-10-18T18:43:12.139Z,6.89
2022-10-18T18:45:55.459Z,6.87
2022-10-18T18:48:30.995Z,6.73
2022-10-18T18:51:06.618Z,6.62
2022-10-18T18:53:42.176Z,6.59
2022-10-18T18:56:14.659Z,6.48
2022-10-18T18:58:46.357Z,6.46
2022-10-18T19:01:25.735Z,6.53
2022-10-18T19:04:00.062Z,6.61
2022-10-18T19:06:34.088Z,6.67
2022-10-18T19:09:38.116Z,6.65
2022-10-18T19:12:08.240Z,6.57
2022-10-18T19:14:39.889Z,6.56
2022-10-18T19:17:09.724Z,6.47
2022-10-18T19:19:41.531Z,6.38
2022-10-18T19:22:15.702Z,6.30
2022-10-18T19:24:48.594Z,6.23
2022-10-18T19:27:26.117Z,6.14
2022-10-18T19:29:57.790Z,6.09
2022-10-18T19:32:29.559Z,6.05
2022-10-18T19:35:00.514Z,6.02
2022-10-18T19:37:35.484Z,6.03
2022-10-18T19:40:07.769Z,6.04
2022-10-18T19:42:39.179Z,6.14
2022-10-18T19:45:10.435Z,6.09
2022-10-18T19:47:41.702Z,6.03
2022-10-18T19:50:21.904Z,5.97
2022-10-18T19:52:56.013Z,5.86
2022-10-18T19:55:27.872Z,5.78
2022-10-18T19:57:58.382Z,5.76
2022-10-18T20:00:31.566Z,5.73
2022-10-18T20:03:02.224Z,5.70
2022-10-18T20:05:36.726Z,5.71
2022-10-18T20:08:09.145Z,5.57
2022-10-18T20:10:38.827Z,5.55
2022-10-18T20:13:12.331Z,5.51
2022-10-18T20:15:48.347Z,5.44
2022-10-18T20:18:21.152Z,5.39
2022-10-18T20:20:52.486Z,5.48
2022-10-18T20:26:32.430Z,5.52
2022-10-18T20:29:04.732Z,5.59
2022-10-18T20:31:40.053Z,5.50
2022-10-18T20:34:13.313Z,5.51
2022-10-18T20:36:48.013Z,5.49
2022-10-18T20:39:18.783Z,5.43
2022-10-18T20:41:50.870Z,5.40
2022-10-18T20:44:22.911Z,5.39
2022-10-18T20:46:52.179Z,5.35
2022-10-18T20:49:21.347Z,5.31
2022-10-18T20:51:50.537Z,5.32
2022-10-18T20:54:21.274Z,5.28
2022-10-18T20:56:50.407Z,5.23
2022-10-18T20:59:19.596Z,5.14
2022-10-18T21:01:48.725Z,5.07
2022-10-18T21:04:18.007Z,5.09
2022-10-18T21:06:47.256Z,5.08
2022-10-18T21:09:18.832Z,5.12
2022-10-18T21:11:51.419Z,5.05
2022-10-18T21:14:22.160Z,4.98
2022-10-18T21:16:58.037Z,4.93
2022-10-18T21:19:29.079Z,5.04
2022-10-18T21:21:59.055Z,5.21
2022-10-18T21:24:30.054Z,5.20
2022-10-18T21:27:00.829Z,5.27
2022-10-18T21:29:31.108Z,5.31
2022-10-18T21:32:01.010Z,5.35
2022-10-18T21:34:30.184Z,5.29
2022-10-18T21:36:59.382Z,5.27
2022-10-18T21:39:30.178Z,5.27
2022-10-18T21:42:00.825Z,5.37
2022-10-18T21:44:30.025Z,5.46
2022-10-18T21:46:59.194Z,5.53
2022-10-18T21:49:29.695Z,5.56
2022-10-18T21:52:05.573Z,5.56
2022-10-18T21:54:34.762Z,5.56
2022-10-18T21:57:05.544Z,5.61
2022-10-18T21:59:45.033Z,5.61
2022-10-18T22:02:16.768Z,5.60
2022-10-18T22:04:47.047Z,5.61
2022-10-18T22:07:16.174Z,5.66
2022-10-18T22:09:46.318Z,5.69
2022-10-18T22:12:26.149Z,5.71
2022-10-18T22:14:55.276Z,5.74
2022-10-18T22:17:24.692Z,5.74
2022-10-18T22:19:59.403Z,5.79
2022-10-18T22:22:29.358Z,5.80
2022-10-18T22:24:58.619Z,5.82
2022-10-18T22:27:31.460Z,5.88
2022-10-18T22:30:01.885Z,5.94
2022-10-18T22:32:33.221Z,5.96
2022-10-18T22:35:07.081Z,6.04
2022-10-18T22:37:36.825Z,6.12
2022-10-18T22:40:11.121Z,6.19
2022-10-18T22:42:44.200Z,6.21
2022-10-18T22:45:13.434Z,6.19
2022-10-18T22:47:42.766Z,6.20
2022-10-18T22:50:12.520Z,6.20
2022-10-18T22:52:44.158Z,6.18
2022-10-18T22:55:13.416Z,6.17
2022-10-18T22:57:44.265Z,6.18
2022-10-18T23:00:15.484Z,6.21
2022-10-18T23:02:44.795Z,6.24
2022-10-18T23:05:13.948Z,6.29
2022-10-18T23:07:42.925Z,6.32
2022-10-18T23:10:12.089Z,6.33
2022-10-18T23:12:41.511Z,6.31
2022-10-18T23:15:12.468Z,6.32
2022-10-18T23:17:41.557Z,6.33
2022-10-18T23:20:13.215Z,6.33
2022-10-18T23:22:42.187Z,6.36
2022-10-18T23:25:11.490Z,6.34
2022-10-18T23:27:40.955Z,6.37
2022-10-18T23:30:12.893Z,6.37
2022-10-18T23:32:42.192Z,6.37
2022-10-18T23:35:11.484Z,6.37
2022-10-18T23:37:40.486Z,6.35
2022-10-18T23:40:10.969Z,6.32
2022-10-18T23:42:40.747Z,6.31
2022-10-18T23:45:12.070Z,6.30
2022-10-18T23:47:41.315Z,6.32
2022-10-18T23:50:11.189Z,6.34
2022-10-18T23:52:40.257Z,6.37
2022-10-18T23:55:10.040Z,6.35
2022-10-18T23:57:38.964Z,6.31
